createdAt,value
2023-05-13T00:01:51.169Z,22.60
2023-05-13T00:04:21.074Z,22.47
2023-05-13T00:06:50.921Z,22.55
2023-05-13T00:09:20.727Z,22.37
2023-05-13T00:11:43.518Z,22.22
2023-05-13T00:14:13.575Z,22.04
2023-05-13T00:16:44.324Z,21.92
2023-05-13T00:19:14.582Z,21.24
2023-05-13T00:21:44.806Z,21.08
2023-05-13T00:24:14.666Z,21.09
2023-05-13T00:26:44.515Z,21.51
2023-05-13T00:29:14.527Z,21.46
2023-05-13T00:31:44.547Z,20.51
2023-05-13T00:34:14.770Z,20.61
2023-05-13T00:36:44.708Z,20.33
2023-05-13T00:39:14.824Z,20.05
2023-05-13T00:41:43.383Z,20.17
2023-05-13T00:44:03.616Z,20.92
2023-05-13T00:46:36.583Z,21.43
2023-05-13T00:48:56.673Z,20.41
2023-05-13T00:51:26.976Z,20.95
2023-05-13T00:53:57.596Z,21.14
2023-05-13T00:56:28.866Z,21.18
2023-05-13T00:58:59.258Z,20.95
2023-05-13T01:01:15.367Z,21.11
2023-05-13T01:03:47.756Z,20.73
2023-05-13T01:06:20.512Z,20.97
2023-05-13T01:08:56.600Z,20.97
2023-05-13T01:11:29.693Z,20.68
2023-05-13T01:14:05.018Z,20.60
2023-05-13T01:16:41.688Z,20.26
2023-05-13T01:19:35.281Z,20.33
2023-05-13T01:21:45.199Z,20.53
2023-05-13T01:24:08.522Z,20.41
2023-05-13T01:26:29.479Z,20.27
2023-05-13T01:28:59.457Z,20.07
2023-05-13T01:31:20.135Z,19.60
2023-05-13T01:33:50.201Z,19.45
2023-05-13T01:36:20.705Z,19.85
2023-05-13T01:38:51.300Z,20.02
2023-05-13T01:41:21.358Z,19.94
2023-05-13T01:43:51.218Z,19.93
2023-05-13T01:46:21.715Z,19.95
2023-05-13T01:48:52.304Z,19.73
2023-05-13T01:51:22.297Z,19.70
2023-05-13T01:53:52.595Z,19.92
2023-05-13T01:56:23.404Z,19.94
2023-05-13T01:58:53.182Z,19.71
2023-05-13T02:01:23.155Z,19.83
2023-05-13T02:03:53.333Z,19.70
2023-05-13T02:06:13.400Z,19.74
2023-05-13T02:08:43.118Z,19.43
2023-05-13T02:11:13.106Z,19.50
2023-05-13T02:13:42.838Z,19.76
2023-05-13T02:16:14.129Z,19.78
2023-05-13T02:18:43.963Z,19.75
2023-05-13T02:21:13.877Z,19.59
2023-05-13T02:23:43.685Z,19.53
2023-05-13T02:26:13.508Z,19.87
2023-05-13T02:28:43.748Z,20.02
2023-05-13T02:31:13.680Z,20.11
2023-05-13T02:33:43.549Z,20.01
2023-05-13T02:36:13.516Z,20.24
2023-05-13T02:38:43.275Z,20.22
2023-05-13T02:41:05.820Z,20.26
2023-05-13T02:43:38.128Z,20.19
2023-05-13T02:46:07.928Z,20.36
2023-05-13T02:48:31.063Z,20.20
2023-05-13T02:51:01.781Z,20.44
2023-05-13T02:53:31.885Z,20.46
2023-05-13T02:56:02.435Z,20.60
2023-05-13T02:58:32.623Z,20.95
2023-05-13T03:01:04.876Z,20.98
2023-05-13T03:03:35.222Z,21.15
2023-05-13T03:06:05.797Z,21.18
2023-05-13T03:08:35.929Z,21.35
2023-05-13T03:11:06.501Z,21.48
2023-05-13T03:13:39.313Z,21.70
2023-05-13T03:16:09.852Z,21.77
2023-05-13T03:18:40.481Z,21.76
2023-05-13T03:21:10.339Z,21.91
2023-05-13T03:23:40.483Z,22.11
2023-05-13T03:26:10.356Z,22.22
2023-05-13T03:28:40.220Z,22.47
2023-05-13T03:31:10.664Z,22.50
2023-05-13T03:33:40.711Z,22.62
2023-05-13T03:36:11.921Z,22.73
2023-05-13T03:38:41.722Z,22.85
2023-05-13T03:41:11.758Z,23.04
2023-05-13T03:43:41.556Z,23.14
2023-05-13T03:46:11.809Z,23.28
2023-05-13T03:48:41.726Z,23.60
2023-05-13T03:51:11.597Z,23.82
2023-05-13T03:53:41.606Z,23.93
2023-05-13T03:56:10.900Z,24.13
2023-05-13T03:58:41.084Z,24.35
2023-05-13T04:01:11.865Z,24.61
2023-05-13T04:03:32.283Z,24.66
2023-05-13T04:06:02.145Z,25.08
2023-05-13T04:08:32.519Z,24.96
2023-05-13T04:11:02.759Z,25.03
2023-05-13T04:13:32.699Z,25.27
2023-05-13T04:16:02.606Z,25.51
2023-05-13T04:18:32.666Z,25.69
2023-05-13T04:21:02.793Z,26.01
2023-05-13T04:23:32.862Z,26.23
2023-05-13T04:26:02.761Z,26.22
2023-05-13T04:28:32.953Z,25.98
2023-05-13T04:31:03.960Z,25.92
2023-05-13T04:33:34.781Z,26.03
2023-05-13T04:36:04.738Z,26.32
2023-05-13T04:38:35.225Z,26.33
2023-05-13T04:41:08.601Z,26.56
2023-05-13T04:43:24.634Z,26.57
2023-05-13T04:45:39.404Z,26.54
2023-05-13T04:48:09.974Z,26.57
2023-05-13T04:50:40.134Z,26.91
2023-05-13T04:53:10.291Z,26.94
2023-05-13T04:55:40.270Z,27.31
2023-05-13T04:57:53.485Z,27.25
2023-05-13T05:00:23.513Z,27.93
2023-05-13T05:02:53.621Z,28.15
2023-05-13T05:05:24.419Z,28.18
2023-05-13T05:07:47.153Z,28.28
2023-05-13T05:10:17.364Z,28.56
2023-05-13T05:12:44.412Z,28.74
2023-05-13T05:15:16.763Z,28.78
2023-05-13T05:17:47.456Z,28.90
2023-05-13T05:20:17.978Z,28.93
2023-05-13T05:22:43.146Z,29.01
2023-05-13T05:24:55.441Z,29.14
2023-05-13T05:27:16.398Z,29.37
2023-05-13T05:29:46.247Z,29.68
2023-05-13T05:32:16.393Z,29.75
2023-05-13T05:34:46.473Z,29.59
2023-05-13T05:37:16.544Z,29.59
2023-05-13T05:39:46.361Z,29.54
2023-05-13T05:42:09.665Z,29.79
2023-05-13T05:44:39.468Z,30.05
2023-05-13T05:46:59.336Z,29.97
2023-05-13T05:49:29.201Z,30.22
2023-05-13T05:51:59.183Z,30.55
2023-05-13T05:54:29.153Z,30.57
2023-05-13T05:56:58.965Z,30.81
2023-05-13T05:59:29.048Z,30.97
2023-05-13T06:01:47.135Z,31.15
2023-05-13T06:04:17.585Z,31.47
2023-05-13T06:06:47.684Z,31.71
2023-05-13T06:09:18.095Z,32.08
2023-05-13T06:11:48.026Z,32.17
2023-05-13T06:14:16.463Z,32.21
2023-05-13T06:16:46.174Z,32.71
2023-05-13T06:19:15.210Z,32.84
2023-05-13T06:21:46.393Z,33.13
2023-05-13T06:24:16.253Z,33.25
2023-05-13T06:26:46.138Z,33.49
2023-05-13T06:29:15.986Z,33.67
2023-05-13T06:31:46.054Z,33.79
2023-05-13T06:34:06.299Z,33.91
2023-05-13T06:36:36.480Z,34.10
2023-05-13T06:39:06.559Z,34.41
2023-05-13T06:41:37.608Z,34.71
2023-05-13T06:44:07.726Z,35.01
2023-05-13T06:46:40.181Z,35.32
2023-05-13T06:49:10.342Z,35.49
2023-05-13T06:51:40.227Z,35.46
2023-05-13T06:54:49.258Z,35.81
2023-05-13T06:56:45.502Z,35.92
2023-05-13T06:59:15.423Z,36.28
2023-05-13T07:01:45.282Z,36.38
2023-05-13T07:04:05.654Z,36.50
2023-05-13T07:06:35.762Z,36.68
2023-05-13T07:09:08.353Z,36.71
2023-05-13T07:11:39.034Z,37.02
2023-05-13T07:14:09.139Z,37.04
2023-05-13T07:16:39.175Z,37.09
2023-05-13T07:19:09.158Z,37.18
2023-05-13T07:21:39.251Z,37.24
2023-05-13T07:24:09.279Z,37.30
2023-05-13T07:26:39.991Z,37.41
2023-05-13T07:29:09.945Z,37.72
2023-05-13T07:31:40.269Z,37.88
2023-05-13T07:34:09.122Z,37.93
2023-05-13T07:36:39.403Z,37.95
2023-05-13T07:39:10.514Z,38.43
2023-05-13T07:41:41.852Z,38.50
2023-05-13T07:44:14.130Z,38.62
2023-05-13T07:46:43.886Z,38.77
2023-05-13T07:49:13.856Z,39.02
2023-05-13T07:51:43.818Z,39.28
2023-05-13T07:54:14.244Z,39.42
2023-05-13T07:56:34.408Z,39.57
2023-05-13T07:59:04.540Z,39.73
2023-05-13T08:01:34.699Z,39.89
2023-05-13T08:03:54.857Z,40.02
2023-05-13T08:06:18.146Z,40.25
2023-05-13T08:08:47.953Z,40.43
2023-05-13T08:11:18.026Z,40.71
2023-05-13T08:13:32.752Z,40.89
2023-05-13T08:16:05.788Z,41.10
2023-05-13T08:18:36.214Z,41.19
2023-05-13T08:21:06.642Z,41.29
2023-05-13T08:23:40.840Z,41.46
2023-05-13T08:26:12.620Z,41.60
2023-05-13T08:28:42.845Z,41.74
2023-05-13T08:31:05.247Z,41.90
2023-05-13T08:33:35.567Z,42.01
2023-05-13T08:36:05.375Z,42.17
2023-05-13T08:38:32.014Z,42.20
2023-05-13T08:40:54.860Z,42.28
2023-05-13T08:43:18.305Z,42.31
2023-05-13T08:45:49.923Z,42.42
2023-05-13T08:48:20.270Z,42.63
2023-05-13T08:50:50.361Z,42.80
2023-05-13T08:53:21.219Z,42.99
2023-05-13T08:55:51.571Z,43.12
2023-05-13T08:58:21.469Z,43.13
2023-05-13T09:00:44.404Z,43.40
2023-05-13T09:03:15.445Z,43.54
2023-05-13T09:05:46.312Z,43.71
2023-05-13T09:08:10.444Z,43.86
2023-05-13T09:10:40.648Z,44.01
2023-05-13T09:13:10.452Z,44.12
2023-05-13T09:15:31.717Z,44.17
2023-05-13T09:20:47.905Z,44.72
2023-05-13T09:23:18.294Z,44.95
2023-05-13T09:25:47.859Z,45.28
2023-05-13T09:28:18.409Z,45.57
2023-05-13T09:30:57.738Z,45.84
2023-05-13T09:33:11.744Z,45.82
2023-05-13T09:35:42.061Z,46.09
2023-05-13T09:38:19.786Z,46.28
2023-05-13T09:40:57.028Z,46.61
2023-05-13T09:43:27.675Z,46.74
2023-05-13T09:46:03.624Z,47.10
2023-05-13T09:48:39.094Z,47.21
2023-05-13T09:51:33.177Z,47.54
2023-05-13T09:54:18.313Z,47.57
2023-05-13T09:56:48.957Z,47.80
2023-05-13T10:02:13.961Z,48.18
2023-05-13T10:04:43.863Z,48.27
2023-05-13T10:07:16.377Z,48.42
2023-05-13T10:09:38.431Z,48.55
2023-05-13T10:11:51.189Z,48.66
2023-05-13T10:14:08.043Z,48.59
2023-05-13T10:16:38.166Z,48.74
2023-05-13T10:19:09.372Z,48.89
2023-05-13T10:21:40.574Z,48.89
2023-05-13T10:24:03.234Z,48.97
2023-05-13T10:26:26.456Z,49.01
2023-05-13T10:28:39.939Z,49.09
2023-05-13T10:31:10.518Z,49.21
2023-05-13T10:33:44.398Z,49.22
2023-05-13T10:36:35.821Z,49.13
2023-05-13T10:39:06.976Z,49.27
2023-05-13T10:41:53.003Z,49.41
2023-05-13T10:44:43.627Z,49.46
2023-05-13T10:47:16.248Z,49.54
2023-05-13T10:49:53.090Z,49.73
2023-05-13T10:52:25.381Z,49.79
2023-05-13T10:55:34.538Z,49.88
2023-05-13T10:57:39.183Z,50.01
2023-05-13T11:00:21.171Z,50.02
2023-05-13T11:02:42.625Z,50.04
2023-05-13T11:05:12.870Z,50.20
2023-05-13T11:07:43.235Z,50.37
2023-05-13T11:10:25.759Z,50.61
2023-05-13T11:12:48.590Z,50.86
2023-05-13T11:15:28.828Z,51.03
2023-05-13T11:17:58.886Z,51.08
2023-05-13T11:20:29.857Z,51.19
2023-05-13T11:23:04.834Z,51.31
2023-05-13T11:25:35.060Z,51.45
2023-05-13T11:27:57.608Z,51.56
2023-05-13T11:31:02.853Z,52.00
2023-05-13T11:33:22.366Z,52.33
2023-05-13T11:35:42.260Z,52.47
2023-05-13T11:38:34.908Z,52.60
2023-05-13T11:41:04.171Z,52.77
2023-05-13T11:43:34.892Z,53.06
2023-05-13T11:45:55.757Z,53.21
2023-05-13T11:48:25.381Z,53.36
2023-05-13T11:51:12.138Z,53.48
2023-05-13T11:53:42.014Z,53.53
2023-05-13T11:56:18.176Z,53.72
2023-05-13T11:58:40.745Z,53.76
2023-05-13T12:01:15.771Z,53.81
2023-05-13T12:03:50.860Z,53.85
2023-05-13T12:06:23.881Z,53.99
2023-05-13T12:08:56.436Z,54.06
2023-05-13T12:11:26.636Z,54.13
2023-05-13T12:13:59.657Z,54.25
2023-05-13T12:16:29.744Z,54.38
2023-05-13T12:19:09.496Z,54.50
2023-05-13T12:21:43.002Z,54.47
2023-05-13T12:24:22.198Z,54.64
2023-05-13T12:26:57.181Z,54.73
2023-05-13T12:29:20.974Z,54.83
2023-05-13T12:32:05.657Z,54.78
2023-05-13T12:34:39.885Z,54.88
2023-05-13T12:36:49.841Z,54.95
2023-05-13T12:39:25.054Z,55.19
2023-05-13T12:41:45.361Z,55.27
2023-05-13T12:44:16.949Z,55.55
2023-05-13T12:46:55.478Z,55.70
2023-05-13T12:49:25.471Z,55.74
2023-05-13T12:51:45.583Z,55.88
2023-05-13T12:54:18.158Z,55.88
2023-05-13T12:56:34.372Z,56.02
2023-05-13T12:59:06.777Z,56.01
2023-05-13T13:01:47.326Z,56.15
2023-05-13T13:04:11.747Z,56.43
2023-05-13T13:06:25.275Z,56.36
2023-05-13T13:08:47.898Z,56.44
2023-05-13T13:11:19.687Z,56.46
2023-05-13T13:13:49.817Z,56.53
2023-05-13T13:16:19.904Z,56.49
2023-05-13T13:19:01.770Z,56.67
2023-05-13T13:21:29.038Z,56.83
2023-05-13T13:23:59.454Z,56.86
2023-05-13T13:26:20.345Z,57.01
2023-05-13T13:28:42.398Z,57.15
2023-05-13T13:31:15.473Z,57.28
2023-05-13T13:33:51.070Z,57.35
2023-05-13T13:36:17.925Z,57.41
2023-05-13T13:38:47.779Z,57.59
2023-05-13T13:41:18.279Z,57.43
2023-05-13T13:43:47.317Z,57.62
2023-05-13T13:46:13.350Z,57.87
2023-05-13T13:48:37.256Z,57.88
2023-05-13T13:51:07.527Z,57.99
2023-05-13T13:53:37.514Z,58.04
2023-05-13T13:55:57.714Z,58.03
2023-05-13T13:58:27.691Z,58.11
2023-05-13T14:01:18.189Z,58.24
2023-05-13T14:03:48.449Z,58.19
2023-05-13T14:06:11.666Z,58.27
2023-05-13T14:08:44.478Z,58.19
2023-05-13T14:11:17.780Z,58.36
2023-05-13T14:13:30.783Z,58.27
2023-05-13T14:16:00.828Z,58.25
2023-05-13T14:18:30.773Z,58.35
2023-05-13T14:21:25.232Z,58.33
2023-05-13T14:23:38.526Z,58.33
2023-05-13T14:26:11.863Z,58.33
2023-05-13T14:28:44.656Z,58.38
2023-05-13T14:31:17.661Z,58.22
2023-05-13T14:33:47.582Z,58.16
2023-05-13T14:36:18.172Z,58.20
2023-05-13T14:38:43.099Z,58.09
2023-05-13T14:41:08.810Z,58.07
2023-05-13T14:43:28.571Z,58.13
2023-05-13T14:45:58.219Z,58.05
2023-05-13T14:48:28.395Z,57.98
2023-05-13T14:50:49.799Z,57.80
2023-05-13T14:53:10.057Z,57.62
2023-05-13T14:55:40.265Z,57.35
2023-05-13T14:58:14.162Z,57.00
2023-05-13T15:00:27.845Z,56.77
2023-05-13T15:02:52.346Z,56.50
2023-05-13T15:05:22.262Z,56.46
2023-05-13T15:07:52.049Z,56.12
2023-05-13T15:10:13.355Z,55.89
2023-05-13T15:14:58.720Z,55.42
2023-05-13T15:17:32.109Z,55.11
2023-05-13T15:20:03.644Z,54.78
2023-05-13T15:22:20.534Z,54.48
2023-05-13T15:24:40.801Z,54.12
2023-05-13T15:27:03.735Z,53.46
2023-05-13T15:29:34.140Z,52.78
2023-05-13T15:32:04.423Z,52.88
2023-05-13T15:34:37.350Z,52.50
2023-05-13T15:37:09.360Z,52.31
2023-05-13T15:39:41.802Z,51.88
2023-05-13T15:42:13.036Z,51.27
2023-05-13T15:44:43.313Z,50.97
2023-05-13T15:47:16.262Z,50.37
2023-05-13T15:49:46.109Z,50.22
2023-05-13T15:52:16.892Z,50.13
2023-05-13T15:54:46.738Z,50.21
2023-05-13T15:57:27.019Z,50.07
2023-05-13T15:59:57.231Z,49.84
2023-05-13T16:02:37.705Z,49.61
2023-05-13T16:05:07.947Z,48.80
2023-05-13T16:07:18.398Z,48.72
2023-05-13T16:09:48.419Z,48.51
2023-05-13T16:12:18.393Z,48.39
2023-05-13T16:14:39.738Z,48.42
2023-05-13T16:17:02.531Z,48.10
2023-05-13T16:19:32.313Z,47.94
2023-05-13T16:22:24.331Z,47.66
2023-05-13T16:24:54.159Z,47.68
2023-05-13T16:27:08.263Z,47.13
2023-05-13T16:29:23.967Z,47.14
2023-05-13T16:31:54.371Z,46.69
2023-05-13T16:34:28.726Z,46.33
2023-05-13T16:36:59.296Z,46.32
2023-05-13T16:39:21.964Z,46.28
2023-05-13T16:41:55.369Z,46.18
2023-05-13T16:44:38.740Z,45.75
2023-05-13T16:47:10.166Z,45.31
2023-05-13T16:49:40.913Z,44.90
2023-05-13T16:51:51.017Z,44.98
2023-05-13T16:55:30.721Z,44.81
2023-05-13T16:57:05.718Z,44.37
2023-05-13T16:59:35.724Z,43.61
2023-05-13T17:02:07.051Z,43.29
2023-05-13T17:04:35.752Z,42.63
2023-05-13T17:07:06.013Z,42.42
2023-05-13T17:09:35.806Z,42.16
2023-05-13T17:11:57.101Z,41.92
2023-05-13T17:14:27.122Z,41.43
2023-05-13T17:16:57.181Z,41.14
2023-05-13T17:19:26.983Z,40.97
2023-05-13T17:21:36.906Z,40.89
2023-05-13T17:24:07.231Z,40.79
2023-05-13T17:26:27.339Z,40.40
2023-05-13T17:28:37.218Z,40.19
2023-05-13T17:31:07.522Z,40.15
2023-05-13T17:33:37.725Z,39.78
2023-05-13T17:36:07.990Z,39.60
2023-05-13T17:38:22.542Z,38.86
2023-05-13T17:40:42.510Z,38.85
2023-05-13T17:42:52.964Z,38.64
2023-05-13T17:45:13.913Z,38.50
2023-05-13T17:47:27.192Z,38.52
2023-05-13T17:49:57.118Z,38.23
2023-05-13T17:52:26.994Z,37.96
2023-05-13T17:54:46.960Z,37.76
2023-05-13T17:57:17.617Z,37.57
2023-05-13T17:59:37.532Z,37.43
2023-05-13T18:02:08.077Z,37.35
2023-05-13T18:04:22.200Z,37.31
2023-05-13T18:06:35.125Z,37.24
2023-05-13T18:09:04.999Z,36.87
2023-05-13T18:11:34.872Z,36.62
2023-05-13T18:14:04.960Z,36.73
2023-05-13T18:16:35.022Z,36.58
2023-05-13T18:18:45.126Z,36.44
2023-05-13T18:20:55.011Z,36.35
2023-05-13T18:23:07.644Z,36.26
2023-05-13T18:25:48.490Z,36.01
2023-05-13T18:28:22.361Z,35.78
2023-05-13T18:30:52.266Z,35.59
2023-05-13T18:33:05.458Z,35.39
2023-05-13T18:35:21.008Z,34.96
2023-05-13T18:37:51.004Z,34.80
2023-05-13T18:40:21.222Z,34.96
2023-05-13T18:42:39.050Z,34.74
2023-05-13T18:45:09.718Z,34.92
2023-05-13T18:47:30.189Z,34.92
2023-05-13T18:49:43.240Z,34.86
2023-05-13T18:51:53.065Z,34.92
2023-05-13T18:54:22.873Z,35.08
2023-05-13T18:56:35.809Z,35.12
2023-05-13T18:59:05.679Z,34.77
2023-05-13T19:01:16.552Z,34.46
2023-05-13T19:03:46.742Z,34.43
2023-05-13T19:06:00.234Z,34.33
2023-05-13T19:08:19.266Z,33.85
2023-05-13T19:10:48.215Z,33.60
2023-05-13T19:13:20.826Z,33.54
2023-05-13T19:15:50.753Z,33.53
2023-05-13T19:18:13.432Z,33.56
2023-05-13T19:20:27.008Z,33.55
2023-05-13T19:22:57.202Z,33.90
2023-05-13T19:25:27.348Z,32.91
2023-05-13T19:27:57.471Z,30.81
2023-05-13T19:30:26.304Z,28.40
2023-05-13T19:32:38.977Z,29.98
2023-05-13T19:34:51.995Z,30.18
2023-05-13T19:37:13.585Z,29.61
2023-05-13T19:39:33.593Z,27.30
2023-05-13T19:41:57.749Z,27.26
2023-05-13T19:44:28.994Z,24.28
2023-05-13T19:46:50.095Z,24.43
2023-05-13T19:49:10.119Z,24.21
2023-05-13T19:51:40.064Z,22.82
2023-05-13T19:54:01.035Z,22.52
2023-05-13T19:56:24.106Z,23.24
2023-05-13T19:58:44.074Z,20.48
2023-05-13T20:01:03.968Z,20.31
2023-05-13T20:03:33.899Z,20.25
2023-05-13T20:05:54.919Z,20.47
2023-05-13T20:08:08.671Z,21.37
2023-05-13T20:10:28.606Z,20.46
2023-05-13T20:12:58.447Z,18.97
2023-05-13T20:15:28.696Z,18.93
2023-05-13T20:17:48.890Z,18.98
2023-05-13T20:20:01.776Z,19.14
2023-05-13T20:22:31.711Z,18.84
2023-05-13T20:25:01.511Z,18.15
2023-05-13T20:27:31.309Z,19.13
2023-05-13T20:30:01.181Z,19.26
2023-05-13T20:32:31.149Z,19.45
2023-05-13T20:35:00.977Z,19.33
2023-05-13T20:37:21.133Z,18.50
2023-05-13T20:39:53.081Z,19.12
2023-05-13T20:42:06.891Z,19.31
2023-05-13T20:44:18.083Z,18.67
2023-05-13T20:46:37.341Z,18.68
2023-05-13T20:48:50.710Z,18.45
2023-05-13T20:51:20.441Z,17.92
2023-05-13T20:53:30.337Z,18.21
2023-05-13T20:56:00.271Z,17.63
2023-05-13T20:58:13.360Z,17.65
2023-05-13T21:00:34.415Z,17.72
2023-05-13T21:02:56.982Z,18.23
2023-05-13T21:05:26.731Z,19.34
2023-05-13T21:07:56.624Z,18.53
2023-05-13T23:11:56.846Z,18.06
2023-05-13T23:14:06.884Z,18.20
2023-05-13T23:16:16.096Z,18.47
2023-05-13T23:18:25.953Z,18.37
2023-05-13T23:20:35.257Z,18.34
2023-05-13T23:22:44.987Z,18.70
2023-05-13T23:24:57.889Z,18.99
2023-05-13T23:27:07.961Z,18.47
2023-05-13T23:29:17.356Z,18.30
2023-05-13T23:31:26.872Z,18.62
2023-05-13T23:33:36.400Z,18.64
2023-05-13T23:35:53.310Z,17.36
2023-05-13T23:38:03.089Z,17.01
2023-05-13T23:40:16.270Z,16.55
2023-05-13T23:42:37.194Z,16.82
2023-05-13T23:45:07.658Z,17.62
2023-05-13T23:47:17.775Z,17.94
2023-05-13T23:49:47.584Z,18.22
2023-05-13T23:51:56.881Z,18.25
2023-05-13T23:54:09.139Z,18.39
2023-05-13T23:56:18.419Z,18.04
2023-05-13T23:58:27.655Z,18.36
